createdAt,value
2022-09-16T00:01:34.745Z,95188.84
2022-09-16T00:06:36.272Z,95186.09
2022-09-16T00:11:37.840Z,95188.50
2022-09-16T00:16:39.348Z,95193.38
2022-09-16T00:21:40.919Z,95181.25
2022-09-16T00:26:43.188Z,95174.19
2022-09-16T00:31:44.725Z,95173.75
2022-09-16T00:36:46.228Z,95171.44
2022-09-16T00:41:47.708Z,95164.72
2022-09-16T00:46:49.674Z,95172.53
2022-09-16T00:51:54.401Z,95176.84
2022-09-16T00:56:59.233Z,95174.94
2022-09-16T01:02:06.722Z,95167.03
2022-09-16T01:07:08.411Z,95160.75
2022-09-16T01:12:09.903Z,95153.28
2022-09-16T01:17:14.237Z,95158.69
2022-09-16T01:22:43.850Z,95142.94
2022-09-16T01:28:22.037Z,95138.53
2022-09-16T01:33:45.564Z,95138.44
2022-09-16T01:38:56.052Z,95138.38
2022-09-16T01:44:01.179Z,95144.63
2022-09-16T01:49:16.050Z,95162.38
2022-09-16T01:54:34.272Z,95165.94
2022-09-16T01:59:53.208Z,95170.47
2022-09-16T02:04:57.502Z,95165.72
2022-09-16T02:10:06.695Z,95162.63
2022-09-16T02:15:11.427Z,95166.19
2022-09-16T02:20:17.526Z,95165.31
2022-09-16T02:25:19.934Z,95155.81
2022-09-16T02:30:23.179Z,95148.66
2022-09-16T02:35:28.041Z,95153.75
2022-09-16T02:40:35.089Z,95150.66
2022-09-16T02:45:39.846Z,95149.88
2022-09-16T02:51:09.683Z,95154.63
2022-09-16T02:56:24.581Z,95154.28
2022-09-16T03:01:27.875Z,95154.72
2022-09-16T03:06:30.066Z,95148.44
2022-09-16T03:11:31.534Z,95150.44
2022-09-16T03:16:41.594Z,95151.19
2022-09-16T03:22:13.087Z,95140.28
2022-09-16T03:27:23.146Z,95142.72
2022-09-16T03:32:30.809Z,95145.47
2022-09-16T03:37:35.424Z,95155.38
2022-09-16T03:42:40.136Z,95149.06
2022-09-16T03:47:43.110Z,95153.81
2022-09-16T03:52:44.607Z,95146.00
2022-09-16T03:57:46.077Z,95143.69
2022-09-16T04:02:47.615Z,95146.09
2022-09-16T04:07:50.041Z,95143.44
2022-09-16T04:12:51.502Z,95140.03
2022-09-16T04:17:53.009Z,95137.72
2022-09-16T04:22:54.543Z,95152.78
2022-09-16T04:27:55.999Z,95137.91
2022-09-16T04:32:57.603Z,95135.25
2022-09-16T04:37:59.068Z,95137.69
2022-09-16T04:43:00.525Z,95128.97
2022-09-16T04:48:02.135Z,95134.06
2022-09-16T04:53:03.624Z,95143.06
2022-09-16T04:58:05.094Z,95139.22
2022-09-16T05:03:07.552Z,95136.56
2022-09-16T05:08:09.077Z,95146.13
2022-09-16T05:13:10.552Z,95146.22
2022-09-16T05:18:12.032Z,95151.72
2022-09-16T05:23:13.550Z,95155.66
2022-09-16T05:28:15.042Z,95144.31
2022-09-16T05:33:16.591Z,95138.47
2022-09-16T05:38:18.042Z,95123.09
2022-09-16T05:43:19.507Z,95146.22
2022-09-16T05:48:22.471Z,95127.41
2022-09-16T05:53:25.541Z,95112.78
2022-09-16T05:58:28.454Z,95162.28
2022-09-16T06:03:30.027Z,95149.84
2022-09-16T06:08:34.170Z,95152.59
2022-09-16T06:13:35.740Z,95159.19
2022-09-16T06:18:38.059Z,95171.75
2022-09-16T06:23:40.351Z,95151.28
2022-09-16T06:28:42.352Z,95146.88
2022-09-16T06:33:44.637Z,95152.81
2022-09-16T06:38:46.930Z,95142.16
2022-09-16T06:43:51.155Z,95143.19
2022-09-16T06:49:04.304Z,95146.94
2022-09-16T06:54:08.303Z,95142.53
2022-09-16T06:59:11.117Z,95155.75
2022-09-16T07:04:15.715Z,95157.63
2022-09-16T07:09:18.050Z,95148.28
2022-09-16T07:14:19.511Z,95160.38
2022-09-16T07:19:21.329Z,95147.41
2022-09-16T07:24:22.843Z,95158.09
2022-09-16T07:29:24.639Z,95169.41
2022-09-16T07:34:26.120Z,95184.50
2022-09-16T07:39:27.763Z,95184.22
2022-09-16T07:44:29.521Z,95169.13
2022-09-16T07:49:31.104Z,95184.53
2022-09-16T07:54:32.689Z,95174.28
2022-09-16T07:59:34.163Z,95184.97
2022-09-16T08:04:35.636Z,95175.09
2022-09-16T08:09:48.577Z,95178.59
2022-09-16T08:14:52.173Z,95178.69
2022-09-16T08:19:53.673Z,95174.41
2022-09-16T08:24:55.168Z,95164.41
2022-09-16T08:29:56.646Z,95172.91
2022-09-16T08:34:58.524Z,95177.53
2022-09-16T08:40:00.167Z,95192.75
2022-09-16T08:45:31.259Z,95186.25
2022-09-16T08:50:37.609Z,95186.25
2022-09-16T08:55:42.565Z,95174.16
2022-09-16T09:00:47.341Z,95175.16
2022-09-16T09:05:54.930Z,95182.09
2022-09-16T09:11:23.861Z,95174.19
2022-09-16T09:16:46.462Z,95178.81
2022-09-16T09:21:51.981Z,95181.13
2022-09-16T09:27:14.392Z,95182.69
2022-09-16T09:32:49.852Z,95181.03
2022-09-16T09:38:22.545Z,95165.63
2022-09-16T09:43:33.047Z,95174.16
2022-09-16T09:49:00.796Z,95170.94
2022-09-16T09:54:12.872Z,95165.44
2022-09-16T09:59:23.387Z,95172.16
2022-09-16T10:04:25.083Z,95171.47
2022-09-16T10:09:26.773Z,95168.28
2022-09-16T10:14:33.750Z,95167.94
2022-09-16T10:19:48.722Z,95156.59
2022-09-16T10:25:02.137Z,95155.16
2022-09-16T10:30:03.574Z,95156.69
2022-09-16T10:35:09.043Z,95161.88
2022-09-16T10:40:17.364Z,95167.38
2022-09-16T10:45:25.879Z,95165.72
2022-09-16T10:50:28.192Z,95172.00
2022-09-16T10:55:37.773Z,95164.19
2022-09-16T11:00:49.406Z,95167.38
2022-09-16T11:06:02.880Z,95175.28
2022-09-16T11:11:23.159Z,95172.53
2022-09-16T11:16:43.466Z,95159.31
2022-09-16T11:21:59.885Z,95168.03
2022-09-16T11:27:26.409Z,95162.81
2022-09-16T11:32:35.911Z,95159.13
2022-09-16T11:38:02.523Z,95169.25
2022-09-16T11:43:26.354Z,95177.63
2022-09-16T11:48:41.298Z,95184.00
2022-09-16T11:53:57.264Z,95181.66
2022-09-16T11:59:05.261Z,95168.34
2022-09-16T12:04:32.754Z,95163.50
2022-09-16T12:09:55.555Z,95145.69
2022-09-16T12:15:05.461Z,95151.25
2022-09-16T12:20:19.266Z,95134.72
2022-09-16T12:25:38.126Z,95138.59
2022-09-16T12:30:44.622Z,95144.09
2022-09-16T12:36:07.128Z,95137.06
2022-09-16T12:41:32.529Z,95135.41
2022-09-16T12:46:55.579Z,95126.69
2022-09-16T12:52:00.888Z,95116.78
2022-09-16T12:57:29.750Z,95100.94
2022-09-16T13:02:47.849Z,95104.03
2022-09-16T13:07:53.638Z,95109.41
2022-09-16T13:12:59.123Z,95125.16
2022-09-16T13:18:16.520Z,95118.56
2022-09-16T13:23:24.808Z,95111.41
2022-09-16T13:28:32.184Z,95120.41
2022-09-16T13:33:33.793Z,95121.31
2022-09-16T13:38:38.718Z,95133.41
2022-09-16T13:43:42.997Z,95123.19
2022-09-16T13:49:02.668Z,95122.50
2022-09-16T13:54:04.635Z,95112.03
2022-09-16T13:59:40.406Z,95119.63
2022-09-16T14:05:15.908Z,95112.00
2022-09-16T14:10:42.195Z,95119.25
2022-09-16T14:15:51.339Z,95100.00
2022-09-16T14:21:17.781Z,95096.50
2022-09-16T14:26:21.710Z,95093.19
2022-09-16T14:31:29.520Z,95099.72
2022-09-16T14:36:36.180Z,95092.13
2022-09-16T14:41:43.220Z,95092.13
2022-09-16T14:47:09.256Z,95086.41
2022-09-16T14:52:20.398Z,95077.03
2022-09-16T14:57:24.742Z,95091.66
2022-09-16T15:02:36.049Z,95087.72
2022-09-16T15:07:56.193Z,95098.06
2022-09-16T15:13:04.788Z,95091.00
2022-09-16T15:18:12.449Z,95101.31
2022-09-16T15:23:23.742Z,95101.31
2022-09-16T15:28:25.782Z,95095.94
2022-09-16T15:33:34.307Z,95098.94
2022-09-16T15:38:35.970Z,95094.63
2022-09-16T15:43:44.439Z,95093.88
2022-09-16T15:48:48.694Z,95094.50
2022-09-16T15:53:52.116Z,95095.19
2022-09-16T15:59:01.670Z,95091.41
2022-09-16T16:04:06.482Z,95095.91
2022-09-16T16:09:27.881Z,95104.94
2022-09-16T16:14:33.964Z,95110.94
2022-09-16T16:19:35.945Z,95105.63
2022-09-16T16:24:37.571Z,95107.25
2022-09-16T16:29:39.379Z,95110.53
2022-09-16T16:34:47.280Z,95120.38
2022-09-16T16:39:48.835Z,95110.03
2022-09-16T16:44:51.120Z,95098.16
2022-09-16T16:49:52.628Z,95116.00
2022-09-16T16:54:54.147Z,95117.31
2022-09-16T16:59:55.680Z,95106.56
2022-09-16T17:04:57.244Z,95124.50
2022-09-16T17:09:58.714Z,95129.38
2022-09-16T17:15:00.201Z,95160.31
2022-09-16T17:20:01.883Z,95143.41
2022-09-16T17:25:03.503Z,95152.84
2022-09-16T17:30:05.530Z,95142.03
2022-09-16T17:35:07.334Z,95147.97
2022-09-16T17:40:09.527Z,95152.34
2022-09-16T17:45:11.274Z,95151.72
2022-09-16T17:50:14.031Z,95153.34
2022-09-16T17:55:15.785Z,95143.66
2022-09-16T18:00:18.076Z,95158.69
2022-09-16T18:05:19.656Z,95149.88
2022-09-16T18:10:23.338Z,95152.16
2022-09-16T18:15:25.450Z,95159.38
2022-09-16T18:20:27.062Z,95167.03
2022-09-16T18:25:29.000Z,95166.38
2022-09-16T18:30:30.601Z,95171.94
2022-09-16T18:35:37.034Z,95182.28
2022-09-16T18:40:39.687Z,95183.13
2022-09-16T18:45:41.334Z,95182.47
2022-09-16T18:50:43.093Z,95188.81
2022-09-16T18:55:44.621Z,95188.91
2022-09-16T19:00:49.039Z,95194.50
2022-09-16T19:05:56.957Z,95190.28
2022-09-16T19:11:02.626Z,95188.78
2022-09-16T19:16:04.269Z,95192.41
2022-09-16T19:21:06.200Z,95189.41
2022-09-16T19:26:07.819Z,95189.56
2022-09-16T19:31:12.877Z,95184.59
2022-09-16T19:36:19.245Z,95187.06
2022-09-16T19:41:23.892Z,95182.09
2022-09-16T19:46:26.734Z,95176.66
2022-09-16T19:51:29.068Z,95174.00
2022-09-16T19:56:32.891Z,95163.88
2022-09-16T20:01:36.224Z,95168.69
2022-09-16T20:06:42.339Z,95179.81
2022-09-16T20:11:46.055Z,95169.34
2022-09-16T20:16:49.194Z,95163.16
2022-09-16T20:21:50.752Z,95157.41
2022-09-16T20:26:54.771Z,95159.03
2022-09-16T20:31:56.359Z,95157.50
2022-09-16T20:36:57.937Z,95159.88
2022-09-16T20:41:59.569Z,95158.75
2022-09-16T20:47:02.044Z,95158.84
2022-09-16T20:52:03.562Z,95158.13
2022-09-16T20:57:05.358Z,95168.41
2022-09-16T21:02:08.956Z,95164.63
2022-09-16T21:07:12.191Z,95171.75
2022-09-16T21:12:16.318Z,95174.53
2022-09-16T21:17:19.870Z,95182.09
2022-09-16T21:22:22.514Z,95186.44
2022-09-16T21:27:24.111Z,95191.66
2022-09-16T21:32:25.933Z,95195.63
2022-09-16T21:37:27.740Z,95206.66
2022-09-16T21:42:29.439Z,95205.97
2022-09-16T21:47:32.186Z,95200.13
2022-09-16T21:52:33.901Z,95202.16
2022-09-16T21:57:35.425Z,95204.56
2022-09-16T22:02:37.007Z,95204.22
2022-09-16T22:07:39.636Z,95208.56
2022-09-16T22:12:41.201Z,95206.63
2022-09-16T22:17:43.503Z,95209.06
2022-09-16T22:22:45.021Z,95212.59
2022-09-16T22:27:46.524Z,95205.22
2022-09-16T22:32:48.151Z,95211.56
2022-09-16T22:37:49.829Z,95213.16
2022-09-16T22:42:51.362Z,95206.19
2022-09-16T22:47:52.883Z,95201.56
2022-09-16T22:52:54.402Z,95192.19
2022-09-16T22:57:55.992Z,95194.22
2022-09-16T23:02:57.473Z,95187.97
2022-09-16T23:07:58.963Z,95197.41
2022-09-16T23:13:00.868Z,95193.94
2022-09-16T23:18:02.377Z,95195.19
2022-09-16T23:23:04.423Z,95199.53
2022-09-16T23:28:05.935Z,95194.13
2022-09-16T23:33:07.463Z,95201.22
2022-09-16T23:38:08.954Z,95197.72
2022-09-16T23:43:10.491Z,95207.88
2022-09-16T23:48:13.323Z,95210.78
2022-09-16T23:53:14.813Z,95206.56
2022-09-16T23:58:16.587Z,95204.25
